createdAt,value
2023-04-26T00:00:09.264Z,71.29
2023-04-26T00:03:00.970Z,71.34
2023-04-26T00:05:29.948Z,71.13
2023-04-26T00:07:58.532Z,70.95
2023-04-26T00:10:27.172Z,70.66
2023-04-26T00:12:55.137Z,70.84
2023-04-26T00:15:23.354Z,70.97
2023-04-26T00:17:51.727Z,70.92
2023-04-26T00:20:19.938Z,70.75
2023-04-26T00:22:47.962Z,70.72
2023-04-26T00:25:15.863Z,71.33
2023-04-26T00:27:43.862Z,72.18
2023-04-26T00:30:13.396Z,72.71
2023-04-26T00:32:41.465Z,72.51
2023-04-26T00:35:09.996Z,72.41
2023-04-26T00:37:38.164Z,72.01
2023-04-26T00:40:07.853Z,72.15
2023-04-26T00:42:35.893Z,72.01
2023-04-26T00:45:04.494Z,71.34
2023-04-26T00:47:32.560Z,71.23
2023-04-26T00:50:01.808Z,71.04
2023-04-26T00:52:29.948Z,70.41
2023-04-26T00:54:58.082Z,70.46
2023-04-26T00:57:26.535Z,70.42
2023-04-26T00:59:54.575Z,70.09
2023-04-26T01:02:23.098Z,69.98
2023-04-26T01:04:52.042Z,70.03
2023-04-26T01:07:19.982Z,70.13
2023-04-26T01:09:48.047Z,70.38
2023-04-26T01:12:16.066Z,70.80
2023-04-26T01:14:44.653Z,71.35
2023-04-26T01:17:12.617Z,71.54
2023-04-26T01:19:50.528Z,71.66
2023-04-26T01:22:18.686Z,71.68
2023-04-26T01:24:49.035Z,71.61
2023-04-26T01:27:17.355Z,71.34
2023-04-26T01:29:46.612Z,71.46
2023-04-26T01:32:14.623Z,71.73
2023-04-26T01:34:42.574Z,71.91
2023-04-26T01:37:12.201Z,71.87
2023-04-26T01:39:40.147Z,72.07
2023-04-26T01:42:08.146Z,72.38
2023-04-26T01:44:36.457Z,72.06
2023-04-26T01:47:04.940Z,71.92
2023-04-26T01:49:32.987Z,71.95
2023-04-26T01:52:01.313Z,71.97
2023-04-26T01:54:29.407Z,72.22
2023-04-26T01:56:57.325Z,72.21
2023-04-26T01:59:25.788Z,72.39
2023-04-26T02:01:54.342Z,72.22
2023-04-26T02:04:22.493Z,72.41
2023-04-26T02:06:50.749Z,72.38
2023-04-26T02:09:19.224Z,72.56
2023-04-26T02:11:47.140Z,72.48
2023-04-26T02:14:15.868Z,72.49
2023-04-26T02:16:43.935Z,72.47
2023-04-26T02:19:12.023Z,72.75
2023-04-26T02:21:55.220Z,72.44
2023-04-26T02:24:24.774Z,72.35
2023-04-26T02:26:54.883Z,72.48
2023-04-26T02:29:36.263Z,72.71
2023-04-26T02:32:08.435Z,72.55
2023-04-26T02:34:37.323Z,72.60
2023-04-26T02:37:05.283Z,72.52
2023-04-26T02:39:33.929Z,72.52
2023-04-26T02:42:03.140Z,72.65
2023-04-26T02:44:31.261Z,73.02
2023-04-26T02:46:59.323Z,73.27
2023-04-26T02:49:27.632Z,73.29
2023-04-26T02:51:56.890Z,73.24
2023-04-26T02:54:25.128Z,73.07
2023-04-26T02:56:53.229Z,72.39
2023-04-26T02:59:22.703Z,71.55
2023-04-26T03:01:50.811Z,71.24
2023-04-26T03:04:19.784Z,72.01
2023-04-26T03:06:47.989Z,72.53
2023-04-26T03:09:18.382Z,72.62
2023-04-26T03:11:48.988Z,72.65
2023-04-26T03:14:19.121Z,72.78
2023-04-26T03:16:48.594Z,72.58
2023-04-26T03:19:16.773Z,72.70
2023-04-26T03:21:45.189Z,72.93
2023-04-26T03:24:13.256Z,73.10
2023-04-26T03:26:41.690Z,72.98
2023-04-26T03:29:09.718Z,72.48
2023-04-26T03:31:39.191Z,72.31
2023-04-26T03:34:08.170Z,72.33
2023-04-26T03:36:36.407Z,72.28
2023-04-26T03:39:06.367Z,72.32
2023-04-26T03:41:37.060Z,72.47
2023-04-26T03:44:06.260Z,72.64
2023-04-26T03:46:34.263Z,72.64
2023-04-26T03:49:02.298Z,72.76
2023-04-26T03:51:31.447Z,72.58
2023-04-26T03:53:59.658Z,72.47
2023-04-26T03:56:27.695Z,72.63
2023-04-26T03:58:55.801Z,72.36
2023-04-26T04:01:26.269Z,72.54
2023-04-26T04:03:55.327Z,72.31
2023-04-26T04:06:23.667Z,72.09
2023-04-26T04:08:52.327Z,72.25
2023-04-26T04:11:21.643Z,72.49
2023-04-26T04:13:49.659Z,71.92
2023-04-26T04:16:17.896Z,71.47
2023-04-26T04:18:45.829Z,71.28
2023-04-26T04:21:13.930Z,71.26
2023-04-26T04:23:44.505Z,71.46
2023-04-26T04:26:14.284Z,71.09
2023-04-26T04:28:42.603Z,70.72
2023-04-26T04:31:10.706Z,70.69
2023-04-26T04:33:39.039Z,71.06
2023-04-26T04:36:10.302Z,72.52
2023-04-26T04:38:38.787Z,73.00
2023-04-26T04:41:09.138Z,72.98
2023-04-26T04:43:38.840Z,72.86
2023-04-26T04:46:08.141Z,72.52
2023-04-26T04:48:39.169Z,71.99
2023-04-26T04:51:08.808Z,71.60
2023-04-26T04:53:38.645Z,71.23
2023-04-26T04:56:07.999Z,70.85
2023-04-26T06:34:38.491Z,59.74
2023-04-26T06:37:08.448Z,55.16
2023-04-26T06:39:42.713Z,53.17
2023-04-26T06:42:14.070Z,50.75
2023-04-26T06:44:56.173Z,49.40
2023-04-26T06:47:24.665Z,46.78
2023-04-26T06:49:53.323Z,45.63
2023-04-26T06:52:21.837Z,46.22
2023-04-26T06:54:56.645Z,45.60
2023-04-26T06:57:27.373Z,42.89
2023-04-26T06:59:59.320Z,41.63
2023-04-26T07:02:27.833Z,43.46
2023-04-26T07:04:56.370Z,42.76
2023-04-26T07:07:24.865Z,40.91
2023-04-26T07:10:19.049Z,38.65
2023-04-26T07:12:48.761Z,39.81
2023-04-26T07:15:17.133Z,38.84
2023-04-26T07:17:45.398Z,38.32
2023-04-26T07:20:16.966Z,38.16
2023-04-26T07:22:48.336Z,37.70
2023-04-26T07:25:20.456Z,38.86
2023-04-26T07:27:48.655Z,38.79
2023-04-26T07:30:17.095Z,38.94
2023-04-26T07:32:45.398Z,39.50
2023-04-26T07:35:18.192Z,41.62
2023-04-26T07:37:46.244Z,40.54
2023-04-26T07:40:16.589Z,39.52
2023-04-26T07:42:44.925Z,39.19
2023-04-26T07:45:16.241Z,39.27
2023-04-26T07:47:44.611Z,39.85
2023-04-26T07:50:13.123Z,37.50
2023-04-26T07:52:44.309Z,37.14
2023-04-26T07:55:12.789Z,38.57
2023-04-26T07:57:42.092Z,40.87
2023-04-26T08:00:11.098Z,41.76
2023-04-26T08:02:44.609Z,41.65
2023-04-26T08:05:15.260Z,42.72
2023-04-26T08:07:44.200Z,41.28
2023-04-26T08:10:12.378Z,40.38
2023-04-26T08:12:40.958Z,40.65
2023-04-26T08:15:09.851Z,41.41
2023-04-26T08:17:38.654Z,42.92
2023-04-26T08:20:09.818Z,42.75
2023-04-26T08:22:38.998Z,44.26
2023-04-26T08:25:07.576Z,43.91
2023-04-26T08:27:37.705Z,43.17
2023-04-26T08:30:06.979Z,40.60
2023-04-26T08:32:36.851Z,40.00
2023-04-26T08:35:06.640Z,42.33
2023-04-26T08:37:36.205Z,42.34
2023-04-26T08:40:11.025Z,42.29
2023-04-26T08:42:45.197Z,42.90
2023-04-26T08:45:14.107Z,42.87
2023-04-26T08:48:04.323Z,42.50
2023-04-26T08:50:33.938Z,42.65
2023-04-26T08:53:03.644Z,42.30
2023-04-26T08:55:31.916Z,41.87
2023-04-26T08:58:00.123Z,41.85
2023-04-26T09:00:28.468Z,40.27
2023-04-26T09:02:56.969Z,41.52
2023-04-26T09:05:29.022Z,41.38
2023-04-26T09:07:57.904Z,40.76
2023-04-26T09:10:27.829Z,41.85
2023-04-26T09:12:56.570Z,41.49
2023-04-26T09:15:26.624Z,41.48
2023-04-26T09:17:54.864Z,41.15
2023-04-26T09:20:33.829Z,41.45
2023-04-26T09:23:10.200Z,42.62
2023-04-26T09:25:39.177Z,42.30
2023-04-26T09:28:22.783Z,40.61
2023-04-26T09:30:51.112Z,38.91
2023-04-26T09:33:22.713Z,38.97
2023-04-26T09:35:51.118Z,38.69
2023-04-26T09:38:19.506Z,40.03
2023-04-26T09:40:49.351Z,43.96
2023-04-26T09:43:20.171Z,46.97
2023-04-26T09:45:52.419Z,48.18
2023-04-26T09:48:53.549Z,50.02
2023-04-26T09:51:22.429Z,53.19
2023-04-26T09:53:55.006Z,53.21
2023-04-26T09:56:25.492Z,51.79
2023-04-26T09:58:58.969Z,51.68
2023-04-26T10:01:30.556Z,51.43
2023-04-26T10:04:02.474Z,52.51
2023-04-26T10:06:30.739Z,52.31
2023-04-26T10:09:02.288Z,53.26
2023-04-26T10:11:31.488Z,54.32
2023-04-26T10:13:59.869Z,53.65
2023-04-26T10:16:28.391Z,54.80
2023-04-26T10:18:59.387Z,56.17
2023-04-26T10:21:32.000Z,56.22
2023-04-26T10:24:00.663Z,56.77
2023-04-26T10:26:47.425Z,57.05
2023-04-26T10:29:15.839Z,59.64
2023-04-26T10:32:02.935Z,61.43
2023-04-26T10:34:37.414Z,61.82
2023-04-26T10:37:15.287Z,63.24
2023-04-26T10:39:46.267Z,62.46
2023-04-26T10:42:32.001Z,61.92
2023-04-26T10:45:00.347Z,60.49
2023-04-26T10:47:36.874Z,59.49
2023-04-26T10:50:09.133Z,59.51
2023-04-26T10:53:01.046Z,60.11
2023-04-26T10:55:42.694Z,58.46
2023-04-26T10:58:33.233Z,57.85
2023-04-26T11:01:10.041Z,57.50
2023-04-26T11:03:39.293Z,54.41
2023-04-26T11:06:10.370Z,53.22
2023-04-26T11:08:38.304Z,51.42
2023-04-26T11:11:10.201Z,50.11
2023-04-26T11:13:44.492Z,53.01
2023-04-26T11:16:16.899Z,53.00
2023-04-26T11:18:46.616Z,52.83
2023-04-26T11:21:18.360Z,53.13
2023-04-26T11:26:38.591Z,50.87
2023-04-26T11:29:11.836Z,51.19
2023-04-26T11:31:40.034Z,49.59
2023-04-26T11:34:08.716Z,49.62
2023-04-26T11:36:38.563Z,49.06
2023-04-26T11:39:07.503Z,46.03
2023-04-26T11:41:39.248Z,44.19
2023-04-26T11:44:08.273Z,43.10
2023-04-26T11:46:37.057Z,41.91
2023-04-26T11:49:08.172Z,41.79
2023-04-26T11:51:36.661Z,41.08
2023-04-26T11:54:12.452Z,40.08
2023-04-26T11:56:41.333Z,39.39
2023-04-26T11:59:12.533Z,38.68
2023-04-26T12:04:34.398Z,37.00
2023-04-26T12:07:04.618Z,36.56
2023-04-26T12:09:33.390Z,36.28
2023-04-26T12:12:02.903Z,36.20
2023-04-26T12:14:31.708Z,36.75
2023-04-26T12:17:03.630Z,36.66
2023-04-26T12:19:38.164Z,36.36
2023-04-26T12:22:08.905Z,36.80
2023-04-26T12:24:37.924Z,37.04
2023-04-26T12:27:09.681Z,36.10
2023-04-26T12:29:38.132Z,36.86
2023-04-26T12:32:06.959Z,36.97
2023-04-26T12:34:35.139Z,37.03
2023-04-26T12:37:03.860Z,37.06
2023-04-26T12:39:33.070Z,37.20
2023-04-26T12:42:01.493Z,37.44
2023-04-26T12:44:31.599Z,37.56
2023-04-26T12:47:00.940Z,36.67
2023-04-26T12:49:32.211Z,36.55
2023-04-26T12:52:00.389Z,36.72
2023-04-26T12:54:28.664Z,37.01
2023-04-26T12:56:57.152Z,37.79
2023-04-26T12:59:25.619Z,37.64
2023-04-26T13:01:54.241Z,37.47
2023-04-26T13:04:24.900Z,37.50
2023-04-26T13:06:53.266Z,37.72
2023-04-26T13:09:21.696Z,37.75
2023-04-26T13:11:52.020Z,38.10
2023-04-26T13:14:21.006Z,38.02
2023-04-26T13:16:51.016Z,37.98
2023-04-26T13:19:19.300Z,38.13
2023-04-26T13:21:47.990Z,37.87
2023-04-26T13:24:16.460Z,38.56
2023-04-26T13:26:44.850Z,38.89
2023-04-26T13:29:13.124Z,38.87
2023-04-26T13:31:42.095Z,38.56
2023-04-26T13:34:13.579Z,39.25
2023-04-26T13:36:43.067Z,38.95
2023-04-26T13:39:11.875Z,38.70
2023-04-26T13:41:40.352Z,38.76
2023-04-26T13:44:08.821Z,38.49
2023-04-26T13:46:37.254Z,38.73
2023-04-26T13:49:05.877Z,38.60
2023-04-26T13:52:01.829Z,38.68
2023-04-26T13:54:29.852Z,39.29
2023-04-26T13:56:59.478Z,39.15
2023-04-26T13:59:29.402Z,39.41
2023-04-26T14:01:59.051Z,39.64
2023-04-26T14:04:27.929Z,39.75
2023-04-26T14:06:58.294Z,39.80
2023-04-26T14:09:26.913Z,39.92
2023-04-26T14:12:07.176Z,39.35
2023-04-26T14:14:38.097Z,39.27
2023-04-26T14:17:07.907Z,39.78
2023-04-26T14:20:03.125Z,39.80
2023-04-26T14:22:33.029Z,40.01
2023-04-26T14:25:01.424Z,40.02
2023-04-26T14:27:29.704Z,39.99
2023-04-26T14:29:59.231Z,39.58
2023-04-26T14:32:29.045Z,39.65
2023-04-26T14:34:57.283Z,39.94
2023-04-26T14:37:25.953Z,39.94
2023-04-26T14:39:53.965Z,40.08
2023-04-26T14:42:22.141Z,39.72
2023-04-26T14:45:45.076Z,40.14
2023-04-26T14:48:14.762Z,40.43
2023-04-26T14:50:42.854Z,40.54
2023-04-26T14:53:11.719Z,40.63
2023-04-26T14:55:40.700Z,40.95
2023-04-26T14:58:09.100Z,41.24
2023-04-26T15:05:24.708Z,41.79
2023-04-26T15:07:52.887Z,41.93
2023-04-26T15:10:21.042Z,42.16
2023-04-26T15:12:49.812Z,41.58
2023-04-26T15:15:18.018Z,41.37
2023-04-26T15:17:46.339Z,41.64
2023-04-26T15:20:14.985Z,41.51
2023-04-26T15:22:43.523Z,41.86
2023-04-26T15:25:11.773Z,41.71
2023-04-26T15:27:41.425Z,42.01
2023-04-26T15:30:10.213Z,42.64
2023-04-26T15:32:38.556Z,42.47
2023-04-26T15:35:14.485Z,42.42
2023-04-26T15:37:44.511Z,42.33
2023-04-26T15:40:13.479Z,42.66
2023-04-26T15:42:41.736Z,43.06
2023-04-26T15:45:11.130Z,42.76
2023-04-26T15:47:39.679Z,42.90
2023-04-26T15:50:08.253Z,42.99
2023-04-26T15:52:39.211Z,43.03
2023-04-26T15:55:08.198Z,43.19
2023-04-26T15:57:36.528Z,43.69
2023-04-26T16:00:10.548Z,43.79
2023-04-26T16:02:39.042Z,44.32
2023-04-26T16:05:08.364Z,44.38
2023-04-26T16:07:41.180Z,44.21
2023-04-26T16:10:09.990Z,44.33
2023-04-26T16:12:41.123Z,44.27
2023-04-26T16:15:30.300Z,44.52
2023-04-26T16:17:58.623Z,44.61
2023-04-26T16:20:28.159Z,44.61
2023-04-26T16:22:56.777Z,44.54
2023-04-26T16:25:25.023Z,44.51
2023-04-26T16:27:53.297Z,44.38
2023-04-26T16:30:21.458Z,44.37
2023-04-26T16:32:49.983Z,44.45
2023-04-26T16:35:18.691Z,44.22
2023-04-26T16:37:47.220Z,44.19
2023-04-26T16:40:15.500Z,43.96
2023-04-26T16:42:44.546Z,44.03
2023-04-26T16:45:15.467Z,44.32
2023-04-26T16:47:44.762Z,44.42
2023-04-26T16:50:13.240Z,44.48
2023-04-26T16:52:41.479Z,44.72
2023-04-26T16:55:09.906Z,44.81
2023-04-26T16:57:40.189Z,45.20
2023-04-26T17:00:12.357Z,45.23
2023-04-26T17:02:41.242Z,45.40
2023-04-26T17:05:11.519Z,45.65
2023-04-26T17:07:40.511Z,45.96
2023-04-26T17:10:09.136Z,46.07
2023-04-26T17:12:37.509Z,46.37
2023-04-26T17:15:07.364Z,46.68
2023-04-26T17:17:36.337Z,47.08
2023-04-26T17:20:08.464Z,47.33
2023-04-26T17:22:37.983Z,47.74
2023-04-26T17:25:07.132Z,48.04
2023-04-26T17:27:35.658Z,48.04
2023-04-26T17:30:04.448Z,48.48
2023-04-26T17:32:32.641Z,48.81
2023-04-26T17:35:01.118Z,49.39
2023-04-26T17:37:29.793Z,49.67
2023-04-26T17:44:05.380Z,50.15
2023-04-26T17:46:33.853Z,50.54
2023-04-26T17:49:02.114Z,50.61
2023-04-26T17:51:31.384Z,50.47
2023-04-26T17:53:59.696Z,50.41
2023-04-26T17:56:27.866Z,50.51
2023-04-26T17:58:56.416Z,50.32
2023-04-26T18:01:26.165Z,50.23
2023-04-26T18:03:54.627Z,50.29
2023-04-26T18:06:23.638Z,50.11
2023-04-26T18:08:53.124Z,50.31
2023-04-26T18:11:22.432Z,50.39
2023-04-26T18:13:51.287Z,50.29
2023-04-26T18:16:20.333Z,50.83
2023-04-26T18:18:48.690Z,50.55
2023-04-26T18:21:17.272Z,50.61
2023-04-26T18:23:47.488Z,50.87
2023-04-26T18:26:16.033Z,50.93
2023-04-26T18:28:46.806Z,50.81
2023-04-26T18:31:14.854Z,50.44
2023-04-26T18:33:43.158Z,50.62
2023-04-26T18:36:12.134Z,51.43
2023-04-26T18:38:40.561Z,51.50
2023-04-26T18:41:08.721Z,51.32
2023-04-26T18:43:36.931Z,51.07
2023-04-26T18:46:05.272Z,51.03
2023-04-26T18:48:33.431Z,51.20
2023-04-26T18:51:01.762Z,51.02
2023-04-26T18:53:30.279Z,50.70
2023-04-26T18:55:58.690Z,50.97
2023-04-26T18:58:27.048Z,51.12
2023-04-26T19:00:56.253Z,51.20
2023-04-26T19:03:27.480Z,50.92
2023-04-26T19:05:56.378Z,51.12
2023-04-26T19:08:27.069Z,51.18
2023-04-26T19:10:58.343Z,51.14
2023-04-26T19:13:26.826Z,51.28
2023-04-26T19:15:55.756Z,51.13
2023-04-26T19:18:27.477Z,51.09
2023-04-26T19:20:59.548Z,50.97
2023-04-26T19:23:27.822Z,50.75
2023-04-26T19:26:03.184Z,51.06
2023-04-26T19:28:31.372Z,50.84
2023-04-26T19:30:59.723Z,50.75
2023-04-26T19:33:28.722Z,50.72
2023-04-26T19:35:57.300Z,50.37
2023-04-26T19:38:28.155Z,50.02
2023-04-26T19:40:56.693Z,50.24
2023-04-26T19:43:25.079Z,50.07
2023-04-26T19:45:53.232Z,50.08
2023-04-26T19:48:22.062Z,49.50
2023-04-26T19:50:50.378Z,49.91
2023-04-26T19:53:18.593Z,49.65
2023-04-26T19:55:46.683Z,49.24
2023-04-26T19:58:15.051Z,49.62
2023-04-26T20:00:43.964Z,50.06
2023-04-26T20:03:12.698Z,49.98
2023-04-26T20:05:41.201Z,50.12
2023-04-26T20:08:09.492Z,49.83
2023-04-26T20:10:37.749Z,50.00
2023-04-26T20:13:09.500Z,49.78
2023-04-26T20:15:37.411Z,49.43
2023-04-26T20:18:06.145Z,49.44
2023-04-26T20:20:34.531Z,48.91
2023-04-26T20:31:54.117Z,49.24
2023-04-26T20:34:22.448Z,48.92
2023-04-26T20:36:50.928Z,48.82
2023-04-26T20:39:21.144Z,49.00
2023-04-26T20:41:49.427Z,49.56
2023-04-26T20:44:18.337Z,51.01
2023-04-26T20:46:47.223Z,52.22
2023-04-26T20:49:17.109Z,51.95
2023-04-26T20:51:45.175Z,51.99
2023-04-26T20:54:14.193Z,53.33
2023-04-26T20:56:42.357Z,53.30
2023-04-26T20:59:13.284Z,53.78
2023-04-26T21:01:41.740Z,54.75
2023-04-26T21:04:13.582Z,53.60
2023-04-26T21:06:46.524Z,53.00
2023-04-26T21:09:14.687Z,53.91
2023-04-26T21:11:42.931Z,54.33
2023-04-26T21:14:11.172Z,56.18
2023-04-26T21:16:39.408Z,57.62
2023-04-26T21:19:08.253Z,58.32
2023-04-26T21:21:37.013Z,58.59
2023-04-26T21:24:05.470Z,58.49
2023-04-26T21:26:34.663Z,57.23
2023-04-26T21:29:03.132Z,56.29
2023-04-26T21:31:31.917Z,55.32
2023-04-26T21:33:59.998Z,55.74
2023-04-26T21:36:28.181Z,55.71
2023-04-26T21:38:56.517Z,55.79
2023-04-26T21:41:26.159Z,56.41
2023-04-26T21:43:55.762Z,56.20
2023-04-26T21:46:24.175Z,55.50
2023-04-26T21:48:52.354Z,54.83
2023-04-26T21:51:20.693Z,55.64
2023-04-26T21:53:49.373Z,56.76
2023-04-26T21:56:17.349Z,57.08
2023-04-26T21:58:45.698Z,55.84
2023-04-26T22:01:15.054Z,55.53
2023-04-26T22:03:43.247Z,55.49
2023-04-26T22:06:12.497Z,56.12
2023-04-26T22:08:42.581Z,56.39
2023-04-26T22:11:11.609Z,56.70
2023-04-26T22:13:40.101Z,56.88
2023-04-26T22:16:08.171Z,56.86
2023-04-26T22:19:01.601Z,56.90
2023-04-26T22:21:30.098Z,56.85
2023-04-26T22:23:58.480Z,56.91
2023-04-26T22:26:27.113Z,57.04
2023-04-26T22:28:55.442Z,56.97
2023-04-26T22:31:23.728Z,57.13
2023-04-26T22:33:51.920Z,56.89
2023-04-26T22:36:20.164Z,56.95
2023-04-26T22:38:48.748Z,58.59
2023-04-26T22:41:17.100Z,60.39
2023-04-26T22:43:45.612Z,60.92
2023-04-26T22:46:13.974Z,62.12
2023-04-26T22:48:42.368Z,63.76
2023-04-26T22:51:10.700Z,64.58
2023-04-26T22:53:39.116Z,65.33
2023-04-26T22:56:07.758Z,65.19
2023-04-26T22:58:36.482Z,66.05
2023-04-26T23:01:04.873Z,66.01
2023-04-26T23:03:39.582Z,66.48
2023-04-26T23:06:10.340Z,66.05
2023-04-26T23:08:38.597Z,66.42
2023-04-26T23:11:09.103Z,66.51
2023-04-26T23:13:38.635Z,66.19
2023-04-26T23:16:07.427Z,66.94
2023-04-26T23:18:35.591Z,66.32
2023-04-26T23:21:06.152Z,66.75
2023-04-26T23:23:36.642Z,67.15
2023-04-26T23:26:08.455Z,67.25
2023-04-26T23:28:38.723Z,67.81
2023-04-26T23:31:07.942Z,68.35
2023-04-26T23:33:37.648Z,67.91
2023-04-26T23:36:07.240Z,68.46
2023-04-26T23:38:35.720Z,68.79
2023-04-26T23:41:04.321Z,68.82
2023-04-26T23:43:32.474Z,69.11
2023-04-26T23:46:01.200Z,69.06
2023-04-26T23:48:32.307Z,68.62
2023-04-26T23:51:02.829Z,69.40
2023-04-26T23:53:31.412Z,69.15
2023-04-26T23:55:59.897Z,69.09
2023-04-26T23:58:28.183Z,68.85
